Time;durP1;ratioP1;P1;durP2;ratioP2;P2;SDS_P1;SDS_P2;PMS_P1;PMS_P2;Temp;Humidity;BMP_temperature;BMP_pressure;BME280_temperature;BME280_humidity;BME280_pressure;Samples;Min_cycle;Max_cycle;Signal;HPM_P1;HPM_P2
2022/07/30 00:01:35;;;;;;;;;12.67;12.67;;;;;22.46;50.54;101366.75;5078740;28;45512;-72
2022/07/30 00:04:00;;;;;;;;;14.00;12.33;;;;;22.50;50.72;101381.44;5080167;28;45596;-72
2022/07/30 00:06:26;;;;;;;;;11.67;11.67;;;;;22.42;50.92;101379.91;5079530;28;46181;-72
2022/07/30 00:08:51;;;;;;;;;11.00;11.00;;;;;22.38;51.36;101383.34;5079594;28;45295;-72
2022/07/30 00:11:16;;;;;;;;;10.33;9.00;;;;;22.32;50.95;101380.53;5079849;28;45268;-72
2022/07/30 00:13:42;;;;;;;;;13.33;13.33;;;;;22.27;51.02;101383.13;5079512;28;45342;-72
2022/07/30 00:16:07;;;;;;;;;13.00;12.67;;;;;22.19;50.89;101372.69;5084102;27;46424;-72
2022/07/30 00:18:32;;;;;;;;;13.00;13.00;;;;;22.15;51.58;101383.13;5081938;27;45454;-72
2022/07/30 00:20:58;;;;;;;;;20.67;20.67;;;;;22.11;51.63;101379.25;5079863;28;45361;-72
2022/07/30 00:23:23;;;;;;;;;24.00;23.00;;;;;22.10;52.17;101387.63;5079387;28;45389;-72
2022/07/30 00:25:48;;;;;;;;;21.33;19.33;;;;;22.06;51.58;101390.00;5079202;28;52114;-72
2022/07/30 00:28:13;;;;;;;;;20.00;20.00;;;;;22.01;52.31;101376.34;5086240;27;45363;-72
2022/07/30 00:30:39;;;;;;;;;13.33;13.33;;;;;22.03;51.77;101388.56;5078280;28;45440;-72
2022/07/30 00:33:04;;;;;;;;;14.00;13.33;;;;;22.10;52.56;101398.44;5078115;28;46215;-72
2022/07/30 00:35:30;;;;;;;;;15.00;15.00;;;;;22.04;52.84;101394.81;5077774;28;48180;-72
2022/07/30 00:37:55;;;;;;;;;16.00;14.00;;;;;22.04;52.64;101392.09;5079412;28;45364;-72
2022/07/30 00:40:21;;;;;;;;;16.00;14.33;;;;;22.00;52.85;101391.75;5079247;28;45274;-72
2022/07/30 00:42:47;;;;;;;;;15.67;15.67;;;;;22.03;53.11;101393.16;5079488;28;45423;-72
2022/07/30 00:45:14;;;;;;;;;13.00;13.00;;;;;22.01;52.96;101382.59;5079213;28;46062;-72
2022/07/30 00:47:39;;;;;;;;;10.33;10.33;;;;;22.03;53.04;101393.97;5079339;28;45511;-72
2022/07/30 00:50:07;;;;;;;;;12.00;11.33;;;;;22.02;52.53;101388.78;5078121;28;45373;-72
2022/07/30 00:52:34;;;;;;;;;10.33;10.33;;;;;21.94;53.17;101371.84;5077426;28;45981;-72
2022/07/30 00:55:00;;;;;;;;;13.00;11.33;;;;;21.92;53.06;101381.28;5077338;28;47005;-72
2022/07/30 00:57:26;;;;;;;;;14.00;14.00;;;;;21.89;53.38;101379.03;5079296;28;45360;-72
2022/07/30 00:59:53;;;;;;;;;11.33;11.33;;;;;21.92;53.79;101384.81;5078944;28;45205;-72
2022/07/30 01:02:19;;;;;;;;;12.33;12.33;;;;;21.84;53.41;101368.91;5079205;28;45397;-72
2022/07/30 01:04:44;;;;;;;;;12.00;12.00;;;;;21.81;53.81;101364.81;5089371;27;47460;-72
2022/07/30 01:07:10;;;;;;;;;12.33;12.33;;;;;21.90;53.70;101380.69;5079409;28;45405;-72
2022/07/30 01:09:36;;;;;;;;;13.00;12.00;;;;;21.85;54.10;101370.56;5078662;28;45357;-72
2022/07/30 01:12:02;;;;;;;;;13.67;11.67;;;;;21.80;54.26;101367.75;5078726;28;45656;-72
2022/07/30 01:14:27;;;;;;;;;12.00;10.67;;;;;21.78;54.13;101370.69;5078563;28;46921;-72
2022/07/30 01:16:53;;;;;;;;;15.00;14.00;;;;;21.77;54.11;101368.22;5092112;27;45728;-72
2022/07/30 01:22:27;;;;;;;;;12.00;11.00;;;;;21.70;54.26;101371.03;5076847;28;45341;-72
2022/07/30 01:25:07;;;;;;;;;11.67;11.33;;;;;21.66;54.55;101367.94;5078448;28;45323;-72
2022/07/30 01:27:38;;;;;;;;;10.67;10.67;;;;;21.59;54.79;101366.41;5079025;28;45320;-72
2022/07/30 01:30:04;;;;;;;;;12.67;12.67;;;;;21.58;54.75;101365.59;5078932;28;45406;-72
2022/07/30 01:32:33;;;;;;;;;12.67;11.67;;;;;21.56;54.95;101370.41;5078186;28;45413;-72
2022/07/30 01:35:01;;;;;;;;;15.00;13.33;;;;;21.50;54.18;101365.94;5077405;28;47053;-72
2022/07/30 01:37:27;;;;;;;;;12.33;12.33;;;;;;;;5092132;27;46021;-72
2022/07/30 01:39:53;;;;;;;;;17.00;17.00;;;;;21.46;55.30;101370.97;5080487;28;45305;-72
2022/07/30 01:42:22;;;;;;;;;17.67;16.00;;;;;21.46;54.91;101370.16;5081887;28;45322;-72
2022/07/30 01:44:48;;;;;;;;;14.00;14.00;;;;;21.44;54.90;101367.69;5086087;27;46945;-72
2022/07/30 01:47:16;;;;;;;;;16.67;16.00;;;;;21.43;54.96;101371.44;5081928;28;45294;-71
2022/07/30 01:49:44;;;;;;;;;18.00;18.00;;;;;21.43;55.20;101371.44;5082193;28;45288;-72
2022/07/30 01:52:11;;;;;;;;;14.33;14.33;;;;;21.44;55.31;101373.94;5090637;27;45468;-72
2022/07/30 01:54:38;;;;;;;;;13.33;13.00;;;;;21.39;54.97;101364.84;5081299;28;45417;-72
2022/07/30 01:57:05;;;;;;;;;16.67;16.67;;;;;21.42;55.73;101377.91;5080691;28;45721;-72
2022/07/30 01:59:34;;;;;;;;;14.67;14.67;;;;;21.42;55.71;101378.72;5082002;27;45335;-72
2022/07/30 02:01:59;;;;;;;;;17.00;16.67;;;;;21.41;55.73;101378.97;5081839;28;45428;-72
2022/07/30 02:04:26;;;;;;;;;14.00;14.00;;;;;21.43;55.83;101366.03;5081566;28;45472;-72
2022/07/30 02:07:01;;;;;;;;;12.00;11.67;;;;;21.46;55.80;101379.06;5081359;28;45323;-72
2022/07/30 02:09:34;;;;;;;;;11.00;11.00;;;;;21.48;55.82;101373.44;5080095;28;45410;-72
2022/07/30 02:14:51;;;;;;;;;15.00;14.33;;;;;;;;5081470;28;45343;-72
2022/07/30 02:17:23;;;;;;;;;15.00;15.00;;;;;21.42;55.67;101358.97;5089488;27;45238;-72
2022/07/30 02:19:51;;;;;;;;;15.33;15.33;;;;;21.44;55.82;101368.53;5081774;28;45353;-72
2022/07/30 02:22:19;;;;;;;;;13.33;12.33;;;;;21.45;55.76;101372.03;5096213;27;46484;-72
2022/07/30 02:24:48;;;;;;;;;13.33;13.33;;;;;21.44;55.24;101368.53;5079730;28;47945;-72
2022/07/30 02:27:22;;;;;;;;;14.00;14.00;;;;;21.38;55.20;101364.03;5081220;28;45392;-72
2022/07/30 02:29:51;;;;;;;;;14.00;12.67;;;;;21.43;55.14;101374.16;5081561;28;45377;-72
2022/07/30 02:32:19;;;;;;;;;14.00;14.00;;;;;21.41;55.52;101377.09;5094462;27;46029;-72
2022/07/30 02:34:47;;;;;;;;;14.00;14.00;;;;;21.40;56.21;101377.31;5079810;28;48092;-72
2022/07/30 02:37:14;;;;;;;;;12.00;11.00;;;;;21.34;55.73;101375.53;5081141;28;45358;-72
2022/07/30 02:39:41;;;;;;;;;10.00;10.00;;;;;21.33;56.11;101376.59;5079638;28;45355;-72
2022/07/30 02:42:08;;;;;;;;;13.67;13.67;;;;;21.30;56.09;101373.31;5079677;28;45416;-72
2022/07/30 02:44:37;;;;;;;;;12.33;12.33;;;;;21.21;56.70;101358.47;5083132;27;47562;-72
2022/07/30 02:47:04;;;;;;;;;10.67;10.67;;;;;21.19;56.63;101363.28;5080983;28;45338;-72
2022/07/30 02:49:32;;;;;;;;;11.67;11.67;;;;;21.13;56.53;101358.81;5080896;28;45434;-72
2022/07/30 02:51:58;;;;;;;;;14.33;13.67;;;;;21.11;56.63;101369.00;5078564;28;46347;-72
2022/07/30 02:54:26;;;;;;;;;11.67;10.67;;;;;21.05;56.72;101355.38;5080377;28;46187;-72
2022/07/30 02:56:52;;;;;;;;;12.00;12.00;;;;;21.03;56.86;101359.34;5080842;27;45401;-72
2022/07/30 02:59:20;;;;;;;;;11.67;11.67;;;;;21.00;57.01;101362.50;5080957;28;45395;-72
2022/07/30 03:01:47;;;;;;;;;11.00;11.00;;;;;20.96;57.36;101364.03;5080578;28;45379;-72
2022/07/30 03:04:14;;;;;;;;;11.67;11.67;;;;;20.89;57.52;101370.31;5080718;28;45299;-72
2022/07/30 03:06:42;;;;;;;;;14.00;13.00;;;;;20.84;57.55;101374.75;5080651;28;45374;-72
2022/07/30 03:09:08;;;;;;;;;11.00;11.00;;;;;20.79;57.89;101368.16;5079344;28;45329;-72
2022/07/30 03:11:35;;;;;;;;;13.00;11.00;;;;;20.73;58.40;101369.06;5090930;27;46952;-72
2022/07/30 03:14:01;;;;;;;;;11.00;11.00;;;;;20.64;58.13;101359.63;5083116;27;47465;-72
2022/07/30 03:16:27;;;;;;;;;10.00;10.00;;;;;20.61;58.40;101358.19;5086385;27;45369;-71
2022/07/30 03:18:53;;;;;;;;;14.00;13.33;;;;;20.62;58.41;101362.53;5081130;27;45301;-72
2022/07/30 03:21:24;;;;;;;;;14.67;13.67;;;;;20.52;58.22;101356.84;5080595;28;45754;-72
2022/07/30 03:23:53;;;;;;;;;13.00;12.33;;;;;20.46;58.53;101350.50;5079954;28;45284;-72
2022/07/30 03:26:20;;;;;;;;;13.00;13.00;;;;;20.46;58.81;101352.34;5080537;28;45354;-72
2022/07/30 03:28:47;;;;;;;;;13.33;13.33;;;;;20.41;58.69;101361.16;5092715;27;45347;-72
2022/07/30 03:31:14;;;;;;;;;16.00;16.00;;;;;20.37;58.82;101355.38;5080500;28;45394;-72
2022/07/30 03:33:40;;;;;;;;;14.33;14.33;;;;;20.32;59.08;101349.81;5080128;28;45476;-72
2022/07/30 03:36:08;;;;;;;;;15.00;14.67;;;;;20.24;59.44;101345.56;5079037;28;45409;-72
2022/07/30 03:38:39;;;;;;;;;15.33;13.00;;;;;20.27;59.54;101360.47;5079904;28;45286;-72
2022/07/30 03:41:06;;;;;;;;;16.00;16.00;;;;;20.19;59.34;101342.69;5066115;28;45326;-72
2022/07/30 03:43:33;;;;;;;;;13.67;13.67;;;;;20.15;59.70;101349.59;5079872;28;45359;-72
2022/07/30 03:45:59;;;;;;;;;14.33;14.00;;;;;20.06;59.65;101339.09;5093970;27;46077;-72
2022/07/30 03:48:25;;;;;;;;;11.00;11.00;;;;;20.11;59.98;101351.09;5080110;28;45341;-72
2022/07/30 03:50:52;;;;;;;;;11.67;11.00;;;;;20.04;59.76;101357.38;5091968;27;47094;-72
2022/07/30 03:53:18;;;;;;;;;12.33;12.00;;;;;19.96;60.39;101346.03;5079670;28;45501;-72
2022/07/30 03:55:43;;;;;;;;;13.00;13.00;;;;;19.95;60.45;101350.59;5079660;28;45439;-72
2022/07/30 03:58:10;;;;;;;;;12.67;12.67;;;;;19.93;60.26;101364.28;5092310;27;45511;-72
2022/07/30 04:00:38;;;;;;;;;13.67;13.67;;;;;19.96;60.55;101370.31;5079896;28;45321;-72
2022/07/30 04:03:04;;;;;;;;;14.00;13.00;;;;;19.90;60.43;101367.44;5079697;28;45432;-72
2022/07/30 04:05:29;;;;;;;;;9.67;9.67;;;;;19.88;60.87;101374.09;5079823;28;45357;-72
2022/07/30 04:07:55;;;;;;;;;12.67;12.67;;;;;19.84;60.59;101373.72;5088672;27;45358;-72
2022/07/30 04:10:20;;;;;;;;;13.00;13.00;;;;;19.84;60.90;101381.00;5079458;28;45398;-72
2022/07/30 04:12:45;;;;;;;;;11.00;11.00;;;;;19.75;60.74;101369.66;5079658;28;45361;-72
2022/07/30 04:15:11;;;;;;;;;14.33;11.00;;;;;19.72;60.94;101373.59;5092207;27;45335;-72
2022/07/30 04:17:48;;;;;;;;;14.00;14.00;;;;;19.71;61.09;101374.66;5087728;27;45340;-72
2022/07/30 04:20:23;;;;;;;;;16.33;16.33;;;;;19.66;61.49;101379.88;5079552;28;45271;-72
2022/07/30 04:22:51;;;;;;;;;14.00;14.00;;;;;19.61;61.46;101375.16;5079443;28;45342;-72
2022/07/30 04:25:19;;;;;;;;;15.00;13.67;;;;;19.60;61.53;101381.59;5078858;28;45288;-72
2022/07/30 04:27:45;;;;;;;;;12.67;12.67;;;;;19.58;61.62;101380.16;5079746;28;45343;-72
2022/07/30 04:30:11;;;;;;;;;12.00;12.00;;;;;19.48;62.01;101372.56;5079249;28;45464;-72
2022/07/30 04:32:36;;;;;;;;;14.33;14.33;;;;;19.48;61.85;101386.84;5079409;28;45331;-72
2022/07/30 04:35:03;;;;;;;;;14.33;12.67;;;;;19.46;62.22;101383.56;5079525;28;45287;-72
2022/07/30 04:37:28;;;;;;;;;13.33;13.33;;;;;19.43;62.31;101394.78;5079401;28;45259;-72
2022/07/30 04:39:54;;;;;;;;;13.67;13.67;;;;;19.42;62.48;101399.34;5079065;28;45475;-72
2022/07/30 04:42:21;;;;;;;;;14.67;13.67;;;;;19.33;62.61;101381.78;5079306;28;45592;-72
2022/07/30 04:44:47;;;;;;;;;13.00;13.00;;;;;19.36;63.04;101392.13;5079290;28;45330;-72
2022/07/30 04:47:12;;;;;;;;;13.00;13.00;;;;;19.34;62.93;101393.38;5079215;28;45331;-72
2022/07/30 04:49:40;;;;;;;;;14.33;13.33;;;;;19.34;63.00;101390.69;5079297;28;45481;-72
2022/07/30 04:52:07;;;;;;;;;16.00;16.00;;;;;19.29;63.11;101388.66;5079156;28;45796;-73
2022/07/30 04:54:54;;;;;;;;;13.00;13.00;;;;;19.29;63.52;101394.03;5078481;28;45361;-73
2022/07/30 04:57:21;;;;;;;;;13.00;13.00;;;;;19.27;63.81;101385.34;5077801;28;45325;-74
2022/07/30 04:59:46;;;;;;;;;14.00;13.33;;;;;19.25;63.70;101396.31;5077587;28;45359;-74
2022/07/30 05:02:15;;;;;;;;;14.33;14.33;;;;;19.25;63.86;101390.94;5082274;27;48250;-73
2022/07/30 05:04:41;;;;;;;;;15.33;13.67;;;;;19.22;64.10;101386.00;5077639;28;45378;-74
2022/07/30 05:07:08;;;;;;;;;12.67;12.67;;;;;19.28;64.17;101395.09;5079096;28;45349;-73
2022/07/30 05:09:35;;;;;;;;;14.00;14.00;;;;;19.30;64.26;101401.06;5078707;28;45314;-73
2022/07/30 05:12:00;;;;;;;;;12.33;12.33;;;;;19.27;64.33;101390.72;5078555;28;45407;-73
2022/07/30 05:14:26;;;;;;;;;13.33;13.33;;;;;19.27;64.54;101388.88;5078787;28;45591;-73
2022/07/30 05:16:53;;;;;;;;;13.67;13.67;;;;;19.35;64.41;101395.88;5095736;27;45864;-72
2022/07/30 05:19:19;;;;;;;;;16.33;15.33;;;;;19.30;64.31;101391.13;5080992;28;47379;-73
2022/07/30 05:21:45;;;;;;;;;16.00;15.33;;;;;19.31;64.61;101394.66;5080960;28;47458;-72
2022/07/30 05:24:10;;;;;;;;;16.00;15.00;;;;;19.37;64.79;101409.97;5082084;28;45331;-75
2022/07/30 05:26:36;;;;;;;;;44.00;35.25;;;;;19.33;64.54;101405.22;5082721;28;45255;-74
2022/07/30 05:29:01;;;;;;;;;23.00;22.00;;;;;19.38;64.68;101408.06;5082176;28;45291;-74
2022/07/30 05:31:27;;;;;;;;;15.00;15.00;;;;;19.46;64.69;101418.63;5082418;28;46324;-74
2022/07/30 05:33:52;;;;;;;;;16.33;16.00;;;;;19.49;64.38;101415.47;5082109;28;45303;-75
2022/07/30 05:36:18;;;;;;;;;13.33;13.33;;;;;19.52;64.53;101403.44;5082443;28;45234;-72
2022/07/30 05:38:44;;;;;;;;;13.67;13.67;;;;;19.53;64.43;101405.06;5081688;28;45558;-73
2022/07/30 05:41:09;;;;;;;;;17.33;17.33;;;;;19.58;63.88;101399.88;5082152;28;45338;-74
2022/07/30 05:43:35;;;;;;;;;16.33;15.67;;;;;19.64;64.27;101407.06;5081727;28;45317;-74
2022/07/30 05:46:00;;;;;;;;;15.00;15.00;;;;;19.71;64.33;101407.03;5080906;28;45326;-74
2022/07/30 05:48:26;;;;;;;;;17.00;17.00;;;;;19.76;63.64;101401.81;5081010;28;45352;-74
2022/07/30 05:50:52;;;;;;;;;13.00;12.00;;;;;19.85;63.79;101415.00;5079951;28;47265;-74
2022/07/30 05:53:17;;;;;;;;;14.67;14.67;;;;;19.84;63.60;101407.97;5081387;28;45421;-74
2022/07/30 05:55:43;;;;;;;;;12.67;12.67;;;;;19.96;63.51;101418.84;5082147;28;45501;-74
2022/07/30 05:58:08;;;;;;;;;12.67;11.67;;;;;19.97;63.65;101423.19;5081888;28;45840;-74
2022/07/30 06:00:34;;;;;;;;;12.33;11.67;;;;;20.03;63.71;101422.34;5081866;28;45998;-74
2022/07/30 06:03:00;;;;;;;;;15.67;14.33;;;;;20.06;63.24;101422.72;5081767;28;45409;-73
2022/07/30 06:05:27;;;;;;;;;13.00;12.33;;;;;20.11;63.11;101424.75;5077001;28;45423;-72
2022/07/30 06:07:52;;;;;;;;;15.00;14.33;;;;;20.19;62.46;101439.84;5074088;28;45375;-72
2022/07/30 06:10:18;;;;;;;;;15.00;14.33;;;;;20.22;62.49;101430.47;5095531;27;47271;-73
2022/07/30 06:12:43;;;;;;;;;14.00;14.00;;;;;20.26;62.56;101423.59;5081536;28;45380;-73
2022/07/30 06:15:09;;;;;;;;;16.33;16.33;;;;;20.39;62.14;101428.03;5081661;28;45572;-73
2022/07/30 06:17:40;;;;;;;;;31.50;29.50;;;;;20.43;62.04;101427.34;5088118;27;46268;-72
2022/07/30 06:20:06;;;;;;;;;16.33;16.00;;;;;20.46;61.91;101423.38;5080114;28;45505;-72
2022/07/30 06:22:31;;;;;;;;;14.33;14.33;;;;;20.58;61.13;101434.25;5084015;27;45468;-76
2022/07/30 06:24:56;;;;;;;;;13.00;13.00;;;;;20.66;60.90;101433.13;5081451;28;47594;-76
2022/07/30 06:27:22;;;;;;;;;13.00;13.00;;;;;20.69;61.03;101427.28;5080442;28;45388;-76
2022/07/30 06:29:47;;;;;;;;;13.00;13.00;;;;;20.74;60.67;101430.13;5081835;28;45339;-76
2022/07/30 06:32:13;;;;;;;;;14.33;13.33;;;;;20.84;60.55;101431.47;5080167;28;45739;-76
2022/07/30 06:34:38;;;;;;;;;13.67;13.00;;;;;20.88;60.62;101430.78;5082063;28;45370;-76
2022/07/30 06:37:03;;;;;;;;;12.33;12.33;;;;;20.96;60.25;101432.41;5081735;28;45469;-76
2022/07/30 06:39:29;;;;;;;;;12.33;11.33;;;;;20.98;59.84;101424.88;5080175;27;47254;-76
2022/07/30 06:41:54;;;;;;;;;12.67;12.67;;;;;21.10;59.69;101438.44;5081688;28;45384;-76
2022/07/30 06:44:20;;;;;;;;;12.67;12.67;;;;;21.14;59.76;101438.81;5074732;28;45452;-78
2022/07/30 06:46:45;;;;;;;;;10.67;10.67;;;;;21.24;58.88;101441.78;5071141;28;46525;-76
2022/07/30 06:49:10;;;;;;;;;14.33;13.67;;;;;21.30;59.04;101443.59;5072502;28;52049;-76
2022/07/30 06:51:35;;;;;;;;;13.67;13.00;;;;;21.37;58.84;101434.56;5082829;28;45166;-76
2022/07/30 06:54:01;;;;;;;;;15.33;13.33;;;;;21.43;58.85;101442.56;5083067;28;45422;-76
2022/07/30 06:56:26;;;;;;;;;14.00;14.00;;;;;21.53;57.95;101441.19;5083227;27;45286;-76
2022/07/30 06:58:51;;;;;;;;;14.00;12.33;;;;;21.64;58.47;101440.38;5081073;28;47245;-76
2022/07/30 07:01:17;;;;;;;;;12.67;12.67;;;;;21.81;57.68;101445.97;5081957;28;45285;-76
2022/07/30 07:03:42;;;;;;;;;14.00;14.00;;;;;21.96;57.68;101454.69;5083649;27;45442;-76
2022/07/30 07:06:08;;;;;;;;;15.00;13.00;;;;;22.16;57.79;101454.34;5082084;28;45625;-76
2022/07/30 07:08:35;;;;;;;;;13.67;13.67;;;;;22.30;56.63;101461.16;5081361;28;45283;-76
2022/07/30 07:11:01;;;;;;;;;14.67;14.67;;;;;22.37;56.98;101455.66;5082314;28;45487;-77
2022/07/30 07:13:26;;;;;;;;;12.00;12.00;;;;;22.51;56.69;101461.63;5082291;28;46094;-76
2022/07/30 07:15:52;;;;;;;;;12.67;12.67;;;;;22.62;55.81;101460.00;5083383;27;45417;-77
2022/07/30 07:18:17;;;;;;;;;10.00;10.00;;;;;22.66;55.37;101458.44;5086580;27;45536;-77
2022/07/30 07:20:45;;;;;;;;;13.33;12.00;;;;;22.72;55.37;101447.72;5081119;28;45383;-77
2022/07/30 07:23:10;;;;;;;;;14.00;13.67;;;;;22.85;56.03;101455.59;5080747;28;45298;-76
2022/07/30 07:25:36;;;;;;;;;13.67;13.67;;;;;23.01;56.45;101459.41;5080979;28;45324;-76
2022/07/30 07:28:01;;;;;;;;;12.00;12.00;;;;;23.08;56.48;101457.38;5080650;28;45423;-76
2022/07/30 07:30:26;;;;;;;;;14.67;14.67;;;;;23.19;55.96;101463.84;5092806;27;45311;-76
2022/07/30 07:32:52;;;;;;;;;11.00;11.00;;;;;23.31;55.51;101469.22;5080984;28;45312;-77
2022/07/30 07:35:17;;;;;;;;;12.00;11.00;;;;;23.44;55.05;101461.88;5079339;28;46900;-76
2022/07/30 07:37:42;;;;;;;;;13.00;13.00;;;;;23.55;54.71;101462.84;5080536;28;46462;-77
2022/07/30 07:40:08;;;;;;;;;12.33;12.33;;;;;23.65;55.14;101470.38;5079209;28;45378;-76
2022/07/30 07:42:34;;;;;;;;;12.33;12.33;;;;;23.75;54.13;101461.56;5075379;27;45299;-77
2022/07/30 07:44:59;;;;;;;;;13.00;13.00;;;;;23.85;53.67;101469.88;5081621;28;45255;-76
2022/07/30 07:47:24;;;;;;;;;11.33;11.33;;;;;23.97;54.77;101467.06;5076554;28;47249;-76
2022/07/30 07:49:54;;;;;;;;;11.67;11.33;;;;;24.05;53.12;101466.66;5068641;28;45363;-76
2022/07/30 07:52:19;;;;;;;;;11.67;11.67;;;;;24.15;53.43;101482.31;5075859;27;45350;-76
2022/07/30 07:54:44;;;;;;;;;11.67;11.33;;;;;24.22;52.71;101471.28;5082924;28;45319;-76
2022/07/30 07:57:10;;;;;;;;;12.33;12.33;;;;;24.19;52.04;101464.44;5079936;28;46492;-77
2022/07/30 07:59:36;;;;;;;;;10.00;10.00;;;;;24.29;52.24;101473.81;5090049;27;46015;-76
2022/07/30 08:02:01;;;;;;;;;13.67;13.67;;;;;24.32;51.78;101468.72;5065954;28;45373;-76
2022/07/30 08:04:26;;;;;;;;;9.67;9.67;;;;;24.41;51.60;101463.69;5078886;28;46375;-76
2022/07/30 08:06:52;;;;;;;;;11.33;11.33;;;;;24.45;51.21;101458.56;5080005;28;45344;-76
2022/07/30 08:09:17;;;;;;;;;8.33;8.33;;;;;24.53;50.83;101469.00;5082009;28;45313;-75
2022/07/30 08:11:42;;;;;;;;;10.00;10.00;;;;;24.58;50.70;101469.06;5078496;28;45324;-75
2022/07/30 08:14:07;;;;;;;;;10.00;10.00;;;;;24.64;50.14;101461.81;5076360;28;45220;-76
2022/07/30 08:16:33;;;;;;;;;10.00;10.00;;;;;24.69;49.94;101455.63;5078056;27;47101;-76
2022/07/30 08:18:59;;;;;;;;;11.00;10.33;;;;;24.78;50.07;101466.88;5073829;27;45401;-76
2022/07/30 08:21:25;;;;;;;;;9.33;9.00;;;;;24.85;48.60;101467.50;5079545;28;45274;-76
2022/07/30 08:23:50;;;;;;;;;10.00;9.33;;;;;24.83;48.87;101465.03;5078981;28;45278;-76
2022/07/30 08:26:15;;;;;;;;;10.67;10.67;;;;;24.93;48.90;101466.25;5084549;27;47503;-77
2022/07/30 08:28:42;;;;;;;;;8.00;8.00;;;;;25.01;49.70;101473.13;5075753;28;45508;-76
2022/07/30 08:31:07;;;;;;;;;9.00;9.00;;;;;25.13;49.45;101478.44;5072105;28;45696;-76
2022/07/30 08:33:33;;;;;;;;;8.67;8.00;;;;;25.26;49.05;101482.66;5073612;28;45445;-77
2022/07/30 08:35:58;;;;;;;;;12.00;11.33;;;;;25.27;48.59;101481.56;5078264;28;45561;-77
2022/07/30 08:38:24;;;;;;;;;8.00;8.00;;;;;25.38;48.19;101480.59;5080897;27;45449;-78
2022/07/30 08:40:49;;;;;;;;;9.33;9.33;;;;;25.45;48.07;101474.94;5080300;28;45279;-77
2022/07/30 08:43:16;;;;;;;;;11.33;10.00;;;;;25.47;47.33;101478.25;5076141;28;45323;-77
2022/07/30 08:45:42;;;;;;;;;11.00;10.00;;;;;25.45;47.15;101485.84;5075981;28;45513;-77
2022/07/30 08:48:10;;;;;;;;;9.67;8.67;;;;;25.49;47.31;101489.69;5067015;28;45323;-76
2022/07/30 08:50:35;;;;;;;;;10.67;10.00;;;;;25.46;47.28;101469.25;5073685;28;45422;-77
2022/07/30 08:53:02;;;;;;;;;9.67;9.67;;;;;25.46;46.62;101473.88;5080052;28;45450;-77
2022/07/30 08:55:27;;;;;;;;;6.67;6.67;;;;;25.46;46.50;101471.97;5072032;27;45435;-77
2022/07/30 08:57:53;;;;;;;;;10.00;10.00;;;;;25.54;46.91;101492.47;5077690;28;45545;-76
2022/07/30 09:00:20;;;;;;;;;8.33;8.33;;;;;25.59;46.82;101487.09;5077467;28;45802;-75
2022/07/30 09:02:45;;;;;;;;;11.67;10.33;;;;;25.59;46.34;101492.53;5074932;28;45452;-75
2022/07/30 09:05:11;;;;;;;;;10.00;9.67;;;;;25.65;46.71;101482.50;5077196;28;47211;-75
2022/07/30 09:07:37;;;;;;;;;11.00;10.00;;;;;25.66;46.15;101478.72;5063468;28;45359;-76
2022/07/30 09:10:04;;;;;;;;;11.00;8.00;;;;;25.77;45.80;101486.97;5062171;28;45313;-75
2022/07/30 09:12:37;;;;;;;;;12.00;11.67;;;;;25.82;45.95;101482.38;5074461;28;45500;-75
2022/07/30 09:15:04;;;;;;;;;14.00;10.33;;;;;25.93;46.27;101490.63;5076812;28;45483;-75
2022/07/30 09:17:51;;;;;;;;;14.00;12.33;;;;;26.04;46.22;101489.63;5066803;27;45668;-74
2022/07/30 09:20:18;;;;;;;;;9.67;9.67;;;;;26.19;45.60;101483.44;5079371;28;45327;-75
2022/07/30 09:22:54;;;;;;;;;12.00;11.00;;;;;26.33;45.96;101481.13;5079285;28;45543;-74
2022/07/30 09:25:43;;;;;;;;;12.00;12.00;;;;;26.49;45.07;101488.56;5079667;27;45651;-77
2022/07/30 09:28:10;;;;;;;;;8.00;7.00;;;;;26.54;44.99;101488.56;5068041;28;45512;-75
2022/07/30 09:30:55;;;;;;;;;7.33;7.33;;;;;26.59;44.50;101494.91;5075158;27;45417;-75
2022/07/30 09:33:34;;;;;;;;;15.33;13.33;;;;;26.62;45.18;101487.25;5079111;28;45346;-76
2022/07/30 09:36:00;;;;;;;;;12.67;12.67;;;;;26.68;44.86;101492.47;5067456;28;47163;-76
2022/07/30 09:38:26;;;;;;;;;9.67;9.67;;;;;26.73;44.45;101484.31;5074415;28;45709;-76
2022/07/30 09:40:53;;;;;;;;;8.67;8.67;;;;;26.80;44.81;101489.53;5079749;28;45342;-76
2022/07/30 09:43:19;;;;;;;;;8.67;8.67;;;;;26.80;43.98;101488.69;5079580;27;45335;-77
2022/07/30 09:45:56;;;;;;;;;8.00;8.00;;;;;26.88;44.30;101490.94;5059780;27;47472;-75
2022/07/30 09:48:23;;;;;;;;;8.67;8.33;;;;;26.96;43.25;101495.84;5071861;28;45334;-75
2022/07/30 09:50:50;;;;;;;;;9.33;9.00;;;;;27.03;43.00;101492.09;5079198;28;45401;-77
2022/07/30 09:53:16;;;;;;;;;6.00;6.00;;;;;27.07;43.31;101487.72;5081840;28;45274;-78
2022/07/30 09:55:41;;;;;;;;;7.33;7.33;;;;;27.18;43.01;101502.22;5082942;27;45270;-78
2022/07/30 09:58:08;;;;;;;;;9.67;8.00;;;;;27.27;43.01;101488.88;5080595;28;45350;-77
2022/07/30 10:00:35;;;;;;;;;11.00;8.67;;;;;27.38;41.90;101498.72;5083662;27;45931;-78
2022/07/30 10:03:13;;;;;;;;;10.33;10.33;;;;;27.42;41.84;101491.63;5081713;28;46850;-76
2022/07/30 10:05:47;;;;;;;;;9.33;9.33;;;;;27.53;41.29;101497.91;5070475;28;46305;-77
2022/07/30 10:08:13;;;;;;;;;7.67;7.67;;;;;27.59;41.36;101498.72;5068686;28;45539;-76
2022/07/30 10:10:38;;;;;;;;;7.67;7.67;;;;;27.60;39.08;101481.28;5085424;28;45373;-77
2022/07/30 10:13:06;;;;;;;;;7.33;7.33;;;;;27.69;39.63;101484.31;5081004;28;46566;-77
2022/07/30 10:15:35;;;;;;;;;7.33;7.33;;;;;27.85;39.27;101487.84;5081543;28;47129;-77
2022/07/30 10:18:03;;;;;;;;;6.67;6.67;;;;;27.98;39.80;101489.19;5067571;28;45339;-77
2022/07/30 10:20:29;;;;;;;;;6.00;6.00;;;;;28.10;39.24;101491.63;5069154;28;45348;-77
2022/07/30 10:22:54;;;;;;;;;7.00;7.00;;;;;28.16;37.31;101473.34;5083973;28;46121;-75
2022/07/30 10:25:22;;;;;;;;;7.33;7.33;;;;;28.37;38.69;101476.84;5083995;28;45600;-75
2022/07/30 10:27:48;;;;;;;;;9.00;8.00;;;;;28.45;36.93;101473.56;5085742;28;45227;-76
2022/07/30 10:30:14;;;;;;;;;6.00;6.00;;;;;28.54;38.27;101478.44;5083396;28;45212;-76
2022/07/30 10:32:40;;;;;;;;;7.00;5.00;;;;;28.68;37.55;101475.94;5084207;28;45296;-76
2022/07/30 10:35:07;;;;;;;;;8.33;7.33;;;;;28.89;37.66;101478.56;5083555;28;46128;-77
2022/07/30 10:37:34;;;;;;;;;8.33;8.33;;;;;29.11;36.99;101473.56;5078596;28;45558;-78
2022/07/30 10:40:13;;;;;;;;;9.33;8.33;;;;;29.32;36.54;101473.41;5072216;27;45393;-78
2022/07/30 10:42:50;;;;;;;;;10.67;10.67;;;;;29.55;36.55;101479.31;5081447;28;45164;-77
2022/07/30 10:45:32;;;;;;;;;7.00;7.00;;;;;29.73;36.32;101468.75;5081318;28;45479;-80
2022/07/30 10:47:58;;;;;;;;;8.67;8.67;;;;;29.83;35.03;101463.16;5081194;28;45349;-77
2022/07/30 10:50:25;;;;;;;;;7.00;7.00;;;;;29.88;35.88;101461.47;5082730;27;45492;-76
2022/07/30 10:52:59;;;;;;;;;8.67;7.67;;;;;30.04;35.99;101464.91;5076524;28;45486;-78
2022/07/30 10:55:32;;;;;;;;;8.00;8.00;;;;;30.13;35.48;101467.81;5081410;27;45460;-77
2022/07/30 10:58:04;;;;;;;;;7.00;7.00;;;;;30.16;34.35;101459.84;5069516;28;45394;-76
2022/07/30 11:00:34;;;;;;;;;8.33;7.00;;;;;30.33;35.10;101467.63;5077838;27;45521;-77
2022/07/30 11:03:19;;;;;;;;;7.67;7.33;;;;;30.51;35.23;101469.88;5066398;28;45320;-77
2022/07/30 11:05:47;;;;;;;;;8.00;8.00;;;;;30.57;34.39;101466.78;5071838;27;45932;-78
2022/07/30 11:08:36;;;;;;;;;6.33;6.33;;;;;30.68;34.26;101456.50;5075710;28;45408;-79
2022/07/30 11:11:04;;;;;;;;;9.00;8.00;;;;;30.79;34.40;101456.41;5070079;28;45352;-76
2022/07/30 11:13:53;;;;;;;;;8.67;7.00;;;;;30.92;33.98;101460.31;5070024;28;45556;-76
2022/07/30 11:16:21;;;;;;;;;10.67;9.67;;;;;30.98;33.28;101448.16;5083287;27;45484;-77
2022/07/30 11:19:04;;;;;;;;;9.00;9.00;;;;;31.05;33.70;101454.09;5072796;27;45301;-78
2022/07/30 11:21:31;;;;;;;;;10.00;10.00;;;;;31.21;33.76;101448.38;5065988;28;45374;-78